Driftmaster — AEJH — position and weather

sailwx.info

Track history (hours):
 
Tides and Currents Weather Stations Pressure Air Temp Water Temp Dewpoint Dewpoint Depression Visibility Wind Speed Wind Dir Waves Ship Positions

Driftmaster

Last reported at 2017-Nov-18 11:28 UTC. Time now 2017-Nov-18 11:49 UTC.
Position N 40°41' W 074°04'.

Length 30 m; draft 3 m.

MMSI: 366999411.

Date/timePositionNaut miles runAvg speedWind from/ knotsBaromVisibWave heightAir tempDewpointWater temp
2017-Nov-18 11:28N 40°41' W 074°04'0 0.0
2017-Nov-18 10:55N 40°41' W 074°04'0 0.0
2017-Nov-18 10:28N 40°41' W 074°04'0 0.0
2017-Nov-18 09:58N 40°41' W 074°04'0 0.0
2017-Nov-18 09:28N 40°41' W 074°04'0 0.0
2017-Nov-18 08:58N 40°41' W 074°04'0 0.0
2017-Nov-18 08:25N 40°41' W 074°04'0 0.0
2017-Nov-18 07:58N 40°41' W 074°04'0 0.0
2017-Nov-18 07:28N 40°41' W 074°04'0 0.0
2017-Nov-18 06:58N 40°41' W 074°04'0 0.0
2017-Nov-18 06:28N 40°41' W 074°04'0 0.0
2017-Nov-18 05:58N 40°41' W 074°04'0 0.0
2017-Nov-18 05:28N 40°41' W 074°04'0 0.0
2017-Nov-18 04:58N 40°41' W 074°04'0 0.0
2017-Nov-18 04:25N 40°41' W 074°04'0 0.0
2017-Nov-18 03:58N 40°41' W 074°04'0 0.0
2017-Nov-18 03:28N 40°41' W 074°04'0 0.0
2017-Nov-18 02:58N 40°41' W 074°04'0 0.0
2017-Nov-18 02:28N 40°41' W 074°04'0 0.0
2017-Nov-18 01:58N 40°41' W 074°04'0 0.0
2017-Nov-18 01:25N 40°41' W 074°04'0 0.0
2017-Nov-18 00:58N 40°41' W 074°04'0 0.0
2017-Nov-18 00:25N 40°41' W 074°04'0 0.0
2017-Nov-17 23:58N 40°41' W 074°04'0 0.0
2017-Nov-17 23:25N 40°41' W 074°04'0 0.0
2017-Nov-17 22:55N 40°41' W 074°04'0 0.0
2017-Nov-17 22:28N 40°41' W 074°04'0 0.0
2017-Nov-17 21:55N 40°41' W 074°04'0 0.0
2017-Nov-17 21:28N 40°41' W 074°04'0 0.0
2017-Nov-17 20:58N 40°41' W 074°04'0 0.0
2017-Nov-17 20:22N 40°41' W 074°04'0 0.0
2017-Nov-17 20:00N 40°41' W 074°04'2 3.2
2017-Nov-17 19:30N 40°40' W 074°03'2 4.8
2017-Nov-17 19:00N 40°42' W 074°01'1 2.1
2017-Nov-17 18:30N 40°42' W 073°60'1 2.6
2017-Nov-17 18:01N 40°42' W 074°02'3 6.4
2017-Nov-17 17:30N 40°46' W 074°01'1 2.4
2017-Nov-17 17:01N 40°45' W 074°01'  
2017-Nov-09 19:56N 40°41' W 074°04'2 4.6
2017-Nov-09 19:31N 40°40' W 074°02'1 2.0
2017-Nov-09 19:01N 40°40' W 074°01'1 1.7
2017-Nov-09 18:31N 40°39' W 074°02'0 0.4
2017-Nov-09 18:01N 40°39' W 074°02'1 1.7
2017-Nov-09 17:31N 40°38' W 074°02'0 0.2
2017-Nov-09 17:01N 40°38' W 074°03'0 0.5
2017-Nov-09 16:30N 40°38' W 074°03'0 0.2
2017-Nov-09 16:01N 40°38' W 074°03'0 0.4
2017-Nov-09 15:31N 40°38' W 074°02'0 0.1
2017-Nov-09 15:00N 40°38' W 074°03'0 0.2
2017-Nov-09 14:31N 40°38' W 074°03'2 4.7
2017-Nov-09 14:00N 40°40' W 074°01'1 2.2
2017-Nov-09 13:30N 40°39' W 074°02'2 3.4
2017-Nov-09 13:00N 40°38' W 074°03'3 5.9
2017-Nov-09 12:31N 40°40' W 074°04'1 1.7
2017-Nov-09 12:00N 40°41' W 074°04'3 0.2
2017-Nov-08 18:02N 40°38' W 074°03'0 3.6
2017-Nov-08 18:00N 40°38' W 074°03'  
Track history (hours):
 
Tides and Currents Weather Stations Pressure Air Temp Water Temp Dewpoint Dewpoint Depression Visibility Wind Speed Wind Dir Waves Ship Positions

Driftmaster

Last reported at 2017-Nov-18 11:28 UTC. Time now 2017-Nov-18 11:49 UTC.
Position N 40°41' W 074°04'.

Length 30 m; draft 3 m.

MMSI: 366999411.

Date/timePositionNaut miles runAvg speedWind from/ knotsBaromVisibWave heightAir tempDewpointWater temp
2017-Nov-18 11:28N 40°41' W 074°04'0 0.0
2017-Nov-18 10:55N 40°41' W 074°04'0 0.0
2017-Nov-18 10:28N 40°41' W 074°04'0 0.0
2017-Nov-18 09:58N 40°41' W 074°04'0 0.0
2017-Nov-18 09:28N 40°41' W 074°04'0 0.0
2017-Nov-18 08:58N 40°41' W 074°04'0 0.0
2017-Nov-18 08:25N 40°41' W 074°04'0 0.0
2017-Nov-18 07:58N 40°41' W 074°04'0 0.0
2017-Nov-18 07:28N 40°41' W 074°04'0 0.0
2017-Nov-18 06:58N 40°41' W 074°04'0 0.0
2017-Nov-18 06:28N 40°41' W 074°04'0 0.0
2017-Nov-18 05:58N 40°41' W 074°04'0 0.0
2017-Nov-18 05:28N 40°41' W 074°04'0 0.0
2017-Nov-18 04:58N 40°41' W 074°04'0 0.0
2017-Nov-18 04:25N 40°41' W 074°04'0 0.0
2017-Nov-18 03:58N 40°41' W 074°04'0 0.0
2017-Nov-18 03:28N 40°41' W 074°04'0 0.0
2017-Nov-18 02:58N 40°41' W 074°04'0 0.0
2017-Nov-18 02:28N 40°41' W 074°04'0 0.0
2017-Nov-18 01:58N 40°41' W 074°04'0 0.0
2017-Nov-18 01:25N 40°41' W 074°04'0 0.0
2017-Nov-18 00:58N 40°41' W 074°04'0 0.0
2017-Nov-18 00:25N 40°41' W 074°04'0 0.0
2017-Nov-17 23:58N 40°41' W 074°04'0 0.0
2017-Nov-17 23:25N 40°41' W 074°04'0 0.0
2017-Nov-17 22:55N 40°41' W 074°04'0 0.0
2017-Nov-17 22:28N 40°41' W 074°04'0 0.0
2017-Nov-17 21:55N 40°41' W 074°04'0 0.0
2017-Nov-17 21:28N 40°41' W 074°04'0 0.0
2017-Nov-17 20:58N 40°41' W 074°04'0 0.0
2017-Nov-17 20:22N 40°41' W 074°04'0 0.0
2017-Nov-17 20:00N 40°41' W 074°04'2 3.2
2017-Nov-17 19:30N 40°40' W 074°03'2 4.8
2017-Nov-17 19:00N 40°42' W 074°01'1 2.1
2017-Nov-17 18:30N 40°42' W 073°60'1 2.6
2017-Nov-17 18:01N 40°42' W 074°02'3 6.4
2017-Nov-17 17:30N 40°46' W 074°01'1 2.4
2017-Nov-17 17:01N 40°45' W 074°01'  
2017-Nov-09 19:56N 40°41' W 074°04'2 4.6
2017-Nov-09 19:31N 40°40' W 074°02'1 2.0
2017-Nov-09 19:01N 40°40' W 074°01'1 1.7
2017-Nov-09 18:31N 40°39' W 074°02'0 0.4
2017-Nov-09 18:01N 40°39' W 074°02'1 1.7
2017-Nov-09 17:31N 40°38' W 074°02'0 0.2
2017-Nov-09 17:01N 40°38' W 074°03'0 0.5
2017-Nov-09 16:30N 40°38' W 074°03'0 0.2
2017-Nov-09 16:01N 40°38' W 074°03'0 0.4
2017-Nov-09 15:31N 40°38' W 074°02'0 0.1
2017-Nov-09 15:00N 40°38' W 074°03'0 0.2
2017-Nov-09 14:31N 40°38' W 074°03'2 4.7
2017-Nov-09 14:00N 40°40' W 074°01'1 2.2
2017-Nov-09 13:30N 40°39' W 074°02'2 3.4
2017-Nov-09 13:00N 40°38' W 074°03'3 5.9
2017-Nov-09 12:31N 40°40' W 074°04'1 1.7
2017-Nov-09 12:00N 40°41' W 074°04'3 0.2
2017-Nov-08 18:02N 40°38' W 074°03'0 3.6
2017-Nov-08 18:00N 40°38' W 074°03'  

Dump ship's entire track history